createdAt,value
2022-08-04T00:02:04.202Z,1.98
2022-08-04T00:04:49.802Z,1.97
2022-08-04T00:07:44.086Z,1.80
2022-08-04T00:10:12.015Z,1.92
2022-08-04T00:12:45.321Z,2.17
2022-08-04T00:15:16.449Z,1.88
2022-08-04T00:18:09.401Z,1.83
2022-08-04T00:20:40.879Z,1.85
2022-08-04T00:23:08.377Z,1.90
2022-08-04T00:25:38.495Z,1.90
2022-08-04T00:28:05.029Z,1.90
2022-08-04T00:30:31.668Z,1.80
2022-08-04T00:32:58.596Z,1.88
2022-08-04T00:35:25.167Z,1.98
2022-08-04T00:37:52.318Z,2.10
2022-08-04T00:40:23.154Z,1.67
2022-08-04T00:42:59.635Z,2.10
2022-08-04T00:46:16.603Z,2.28
2022-08-04T00:48:44.074Z,1.65
2022-08-04T00:51:38.747Z,2.05
2022-08-04T00:54:21.182Z,2.13
2022-08-04T00:57:34.013Z,1.90
2022-08-04T01:00:11.815Z,2.20
2022-08-04T01:03:10.745Z,1.85
2022-08-04T01:05:47.789Z,1.90
2022-08-04T01:08:59.033Z,2.20
2022-08-04T01:11:34.485Z,2.08
2022-08-04T01:15:03.625Z,1.92
2022-08-04T01:17:35.744Z,1.90
2022-08-04T01:20:08.275Z,1.92
2022-08-04T01:22:34.516Z,2.08
2022-08-04T01:25:42.419Z,2.08
2022-08-04T01:29:02.282Z,2.20
2022-08-04T01:31:42.396Z,2.20
2022-08-04T01:34:12.091Z,2.00
2022-08-04T01:36:43.287Z,2.20
2022-08-04T01:39:34.716Z,2.05
2022-08-04T01:42:02.414Z,2.55
2022-08-04T01:44:31.676Z,2.17
2022-08-04T01:47:00.855Z,1.95
2022-08-04T01:49:29.912Z,2.13
2022-08-04T01:52:08.670Z,1.80
2022-08-04T01:54:37.732Z,2.22
2022-08-04T01:57:36.953Z,1.90
2022-08-04T01:59:53.419Z,1.98
2022-08-04T02:02:24.294Z,2.00
2022-08-04T02:04:50.933Z,2.10
2022-08-04T02:07:33.830Z,1.98
2022-08-04T02:10:08.588Z,2.08
2022-08-04T02:12:44.590Z,1.92
2022-08-04T02:15:46.444Z,2.10
2022-08-04T02:18:23.254Z,2.33
2022-08-04T02:20:58.591Z,2.47
2022-08-04T02:23:31.307Z,2.00
2022-08-04T02:26:00.950Z,2.25
2022-08-04T02:28:38.423Z,2.40
2022-08-04T02:31:13.601Z,2.65
2022-08-04T02:33:43.730Z,2.80
2022-08-04T02:36:14.061Z,2.15
2022-08-04T02:39:00.689Z,2.13
2022-08-04T02:41:29.448Z,2.20
2022-08-04T02:43:58.726Z,2.40
2022-08-04T02:46:25.889Z,2.28
2022-08-04T02:48:53.369Z,2.20
2022-08-04T02:51:42.741Z,2.33
2022-08-04T02:54:09.446Z,2.30
2022-08-04T02:56:38.769Z,2.17
2022-08-04T02:59:07.681Z,2.40
2022-08-04T03:01:35.205Z,2.10
2022-08-04T03:04:24.190Z,2.67
2022-08-04T03:07:03.330Z,2.50
2022-08-04T03:10:02.898Z,2.33
2022-08-04T03:12:59.079Z,2.33
2022-08-04T03:15:54.964Z,2.50
2022-08-04T03:18:33.346Z,2.85
2022-08-04T03:21:36.963Z,2.13
2022-08-04T03:24:25.005Z,2.20
2022-08-04T03:26:58.022Z,2.25
2022-08-04T03:29:49.070Z,1.77
2022-08-04T03:32:28.774Z,2.00
2022-08-04T03:35:03.239Z,1.98
2022-08-04T03:37:44.959Z,2.20
2022-08-04T03:40:26.868Z,1.70
2022-08-04T03:43:56.973Z,2.25
2022-08-04T03:46:39.713Z,2.50
2022-08-04T03:49:33.593Z,2.20
2022-08-04T03:52:30.690Z,2.83
2022-08-04T03:55:15.034Z,2.58
2022-08-04T03:57:54.635Z,3.15
2022-08-04T04:00:22.496Z,3.60
2022-08-04T04:03:09.105Z,3.17
2022-08-04T04:06:00.197Z,3.08
2022-08-04T04:08:45.163Z,2.95
2022-08-04T04:11:58.027Z,2.65
2022-08-04T04:14:48.435Z,2.55
2022-08-04T04:17:29.955Z,2.58
2022-08-04T04:20:05.818Z,2.40
2022-08-04T04:23:10.982Z,2.58
2022-08-04T04:28:45.333Z,2.53
2022-08-04T04:31:29.710Z,2.28
2022-08-04T04:34:08.635Z,2.40
2022-08-04T04:36:48.973Z,1.92
2022-08-04T04:39:34.319Z,2.10
2022-08-04T04:42:25.464Z,1.90
2022-08-04T04:45:23.328Z,2.15
2022-08-04T04:48:30.348Z,2.15
2022-08-04T04:51:05.672Z,1.98
2022-08-04T04:54:00.569Z,2.90
2022-08-04T04:56:53.804Z,2.58
2022-08-04T04:59:25.594Z,2.20
2022-08-04T05:02:01.822Z,2.35
2022-08-04T05:04:55.717Z,3.13
2022-08-04T05:07:27.900Z,3.25
2022-08-04T05:10:10.687Z,4.30
2022-08-04T05:14:35.371Z,3.97
2022-08-04T05:15:52.142Z,3.55
2022-08-04T05:18:27.199Z,3.45
2022-08-04T05:20:57.526Z,3.08
2022-08-04T05:23:29.438Z,3.10
2022-08-04T05:26:00.665Z,3.28
2022-08-04T05:28:34.072Z,2.83
2022-08-04T05:31:15.316Z,3.10
2022-08-04T05:33:51.154Z,2.63
2022-08-04T05:36:35.324Z,3.03
2022-08-04T05:39:07.581Z,3.10
2022-08-04T05:41:45.424Z,3.03
2022-08-04T05:44:18.823Z,2.63
2022-08-04T05:46:53.635Z,3.22
2022-08-04T05:49:24.248Z,2.40
2022-08-04T05:51:51.111Z,2.40
2022-08-04T05:54:18.491Z,2.85
2022-08-04T05:56:45.317Z,2.85
2022-08-04T05:59:12.693Z,2.80
2022-08-04T06:01:55.801Z,2.67
2022-08-04T06:04:30.789Z,2.75
2022-08-04T06:06:57.310Z,3.25
2022-08-04T06:09:23.723Z,2.60
2022-08-04T06:12:00.294Z,2.78
2022-08-04T06:14:33.071Z,2.85
2022-08-04T06:17:00.129Z,2.75
2022-08-04T06:20:01.315Z,2.70
2022-08-04T06:22:16.379Z,3.10
2022-08-04T06:24:45.504Z,2.70
2022-08-04T06:27:12.161Z,3.03
2022-08-04T06:29:51.301Z,3.08
2022-08-04T06:32:33.754Z,2.67
2022-08-04T06:35:04.863Z,3.40
2022-08-04T06:37:43.090Z,3.28
2022-08-04T06:40:29.919Z,3.85
2022-08-04T06:42:58.877Z,3.17
2022-08-04T06:45:25.577Z,3.15
2022-08-04T06:47:52.544Z,3.05
2022-08-04T06:51:29.669Z,2.63
2022-08-04T06:53:06.789Z,2.97
2022-08-04T06:55:34.621Z,2.78
2022-08-04T06:58:03.427Z,3.15
2022-08-04T07:00:31.069Z,2.92
2022-08-04T07:02:57.857Z,2.92
2022-08-04T07:05:24.505Z,2.95
2022-08-04T07:07:57.543Z,2.53
2022-08-04T07:10:27.602Z,2.65
2022-08-04T07:12:55.557Z,2.25
2022-08-04T07:15:22.539Z,3.00
2022-08-04T07:17:52.028Z,2.33
2022-08-04T07:20:34.314Z,2.47
2022-08-04T07:23:03.845Z,2.40
2022-08-04T07:26:00.166Z,2.60
2022-08-04T07:28:17.269Z,2.50
2022-08-04T07:30:44.505Z,2.55
2022-08-04T07:33:11.456Z,2.80
2022-08-04T07:36:04.393Z,2.40
2022-08-04T07:38:27.786Z,2.60
2022-08-04T07:40:55.154Z,2.95
2022-08-04T07:43:21.833Z,2.58
2022-08-04T07:45:48.369Z,2.83
2022-08-04T07:48:15.477Z,2.17
2022-08-04T07:50:45.184Z,2.50
2022-08-04T07:53:54.493Z,2.40
2022-08-04T07:55:58.882Z,2.90
2022-08-04T07:58:30.140Z,2.30
2022-08-04T08:00:57.396Z,2.22
2022-08-04T08:03:24.556Z,2.13
2022-08-04T08:06:17.568Z,2.50
2022-08-04T08:08:39.530Z,2.42
2022-08-04T08:11:06.835Z,2.80
2022-08-04T08:13:34.373Z,2.50
2022-08-04T08:16:01.199Z,2.63
2022-08-04T08:18:27.571Z,2.60
2022-08-04T08:20:55.326Z,2.50
2022-08-04T08:23:21.874Z,2.08
2022-08-04T08:25:49.203Z,2.40
2022-08-04T08:28:16.605Z,2.30
2022-08-04T08:30:43.068Z,2.50
2022-08-04T08:33:14.109Z,2.53
2022-08-04T08:36:11.013Z,3.08
2022-08-04T08:38:49.823Z,2.38
2022-08-04T08:41:40.957Z,2.40
2022-08-04T08:44:30.220Z,2.45
2022-08-04T08:47:25.183Z,2.35
2022-08-04T08:50:07.075Z,2.33
2022-08-04T08:53:03.080Z,2.20
2022-08-04T08:55:41.036Z,2.63
2022-08-04T08:58:38.874Z,2.70
2022-08-04T09:01:42.600Z,2.20
2022-08-04T09:04:46.323Z,2.95
2022-08-04T09:07:43.464Z,2.88
2022-08-04T09:10:17.654Z,3.03
2022-08-04T09:12:53.084Z,2.67
2022-08-04T09:15:30.220Z,3.05
2022-08-04T09:18:05.889Z,2.78
2022-08-04T09:20:43.242Z,2.63
2022-08-04T09:23:20.855Z,2.67
2022-08-04T09:25:54.690Z,2.90
2022-08-04T09:28:50.870Z,3.30
2022-08-04T09:31:14.689Z,2.83
2022-08-04T09:33:49.297Z,2.80
2022-08-04T09:36:25.724Z,2.80
2022-08-04T09:39:24.725Z,3.10
2022-08-04T09:42:12.652Z,2.42
2022-08-04T09:45:06.353Z,2.83
2022-08-04T09:47:44.403Z,2.50
2022-08-04T09:50:16.853Z,2.78
2022-08-04T09:52:56.739Z,2.83
2022-08-04T09:55:54.115Z,3.00
2022-08-04T09:58:54.196Z,3.47
2022-08-04T10:01:24.463Z,2.90
2022-08-04T10:03:54.482Z,3.00
2022-08-04T10:06:26.738Z,3.10
2022-08-04T10:09:01.365Z,3.50
2022-08-04T10:11:56.340Z,2.60
2022-08-04T10:14:41.465Z,2.53
2022-08-04T10:17:28.136Z,2.70
2022-08-04T10:20:08.946Z,2.80
2022-08-04T10:23:02.248Z,2.55
2022-08-04T10:26:06.140Z,2.72
2022-08-04T10:28:38.271Z,2.75
2022-08-04T10:31:07.392Z,2.53
2022-08-04T10:33:43.249Z,2.70
2022-08-04T10:36:10.885Z,2.78
2022-08-04T10:38:44.702Z,2.80
2022-08-04T10:41:22.001Z,2.88
2022-08-04T10:43:50.820Z,2.42
2022-08-04T10:46:26.152Z,2.42
2022-08-04T10:49:05.259Z,2.10
2022-08-04T10:51:57.800Z,2.50
2022-08-04T10:54:37.593Z,2.60
2022-08-04T10:57:07.395Z,2.15
2022-08-04T10:59:46.082Z,2.60
2022-08-04T11:02:31.955Z,2.22
2022-08-04T11:05:20.010Z,2.35
2022-08-04T11:07:50.705Z,2.60
2022-08-04T11:10:20.969Z,2.78
2022-08-04T11:12:54.205Z,2.40
2022-08-04T11:15:41.954Z,2.55
2022-08-04T11:18:16.477Z,2.10
2022-08-04T11:20:50.892Z,2.40
2022-08-04T11:23:19.193Z,2.05
2022-08-04T11:25:58.417Z,2.15
2022-08-04T11:28:36.774Z,2.10
2022-08-04T11:31:06.030Z,2.05
2022-08-04T11:33:56.330Z,2.35
2022-08-04T11:36:32.330Z,2.10
2022-08-04T11:39:11.486Z,2.00
2022-08-04T11:41:43.690Z,1.77
2022-08-04T11:44:18.659Z,1.65
2022-08-04T11:46:51.139Z,1.90
2022-08-04T11:49:56.979Z,1.80
2022-08-04T11:52:26.905Z,1.83
2022-08-04T11:54:54.708Z,1.75
2022-08-04T11:57:22.685Z,1.63
2022-08-04T11:59:55.859Z,1.60
2022-08-04T12:02:37.860Z,1.40
2022-08-04T12:05:06.505Z,1.30
2022-08-04T12:07:45.474Z,1.48
2022-08-04T12:10:37.824Z,1.77
2022-08-04T12:13:13.158Z,1.23
2022-08-04T12:15:48.105Z,1.60
2022-08-04T12:18:21.841Z,0.90
2022-08-04T12:20:57.306Z,1.40
2022-08-04T12:23:29.999Z,1.23
2022-08-04T12:26:00.401Z,1.40
2022-08-04T12:28:46.469Z,1.50
2022-08-04T12:31:21.027Z,1.52
2022-08-04T12:34:05.014Z,1.65
2022-08-04T12:36:40.409Z,1.33
2022-08-04T12:39:12.961Z,1.70
2022-08-04T12:41:42.469Z,1.60
2022-08-04T12:44:36.495Z,1.48
2022-08-04T12:47:26.286Z,1.48
2022-08-04T12:50:00.423Z,1.35
2022-08-04T12:52:51.749Z,1.30
2022-08-04T12:55:15.122Z,1.30
2022-08-04T12:57:42.751Z,1.38
2022-08-04T13:00:10.194Z,1.58
2022-08-04T13:02:43.854Z,1.73
2022-08-04T13:05:17.209Z,1.35
2022-08-04T13:07:48.189Z,1.40
2022-08-04T13:10:17.571Z,1.98
2022-08-04T13:13:00.702Z,1.60
2022-08-04T13:15:28.211Z,1.60
2022-08-04T13:18:01.973Z,1.60
2022-08-04T13:20:33.614Z,1.90
2022-08-04T13:23:08.996Z,1.98
2022-08-04T13:26:42.975Z,1.83
2022-08-04T13:28:28.278Z,1.70
2022-08-04T13:30:57.546Z,1.30
2022-08-04T13:33:32.729Z,1.70
2022-08-04T13:35:59.940Z,1.77
2022-08-04T13:38:27.292Z,1.92
2022-08-04T13:40:57.072Z,1.80
2022-08-04T13:44:16.249Z,1.80
2022-08-04T13:46:28.164Z,1.60
2022-08-04T13:49:23.564Z,1.40
2022-08-04T13:51:58.186Z,1.63
2022-08-04T13:54:26.927Z,2.00
2022-08-04T13:56:59.909Z,1.60
2022-08-04T13:59:28.560Z,1.80
2022-08-04T14:02:05.600Z,1.52
2022-08-04T14:04:35.116Z,1.90
2022-08-04T14:07:01.403Z,1.80
2022-08-04T14:09:35.263Z,1.70
2022-08-04T14:12:45.845Z,1.60
2022-08-04T14:15:07.167Z,1.88
2022-08-04T14:17:33.823Z,1.60
2022-08-04T14:20:02.369Z,1.88
2022-08-04T14:22:28.821Z,1.80
2022-08-04T14:24:58.922Z,1.80
2022-08-04T14:27:27.864Z,1.80
2022-08-04T14:29:54.631Z,1.60
2022-08-04T14:32:25.911Z,1.60
2022-08-04T14:34:52.738Z,1.70
2022-08-04T14:37:22.926Z,1.63
2022-08-04T14:40:08.147Z,1.83
2022-08-04T14:42:55.430Z,1.88
2022-08-04T14:45:54.400Z,1.70
2022-08-04T14:48:21.896Z,1.92
2022-08-04T14:50:49.397Z,1.80
2022-08-04T14:53:18.166Z,1.60
2022-08-04T14:55:48.064Z,1.65
2022-08-04T14:58:34.631Z,1.70
2022-08-04T15:01:11.833Z,2.00
2022-08-04T15:03:50.182Z,1.67
2022-08-04T15:06:22.654Z,1.60
2022-08-04T15:08:51.038Z,1.80
2022-08-04T15:11:23.023Z,1.50
2022-08-04T15:13:51.235Z,1.52
2022-08-04T15:16:17.673Z,1.90
2022-08-04T15:18:44.098Z,1.80
2022-08-04T15:21:15.916Z,1.80
2022-08-04T15:23:42.360Z,1.60
2022-08-04T15:26:13.376Z,2.00
2022-08-04T15:28:41.299Z,1.75
2022-08-04T15:31:10.672Z,1.92
2022-08-04T15:33:55.991Z,1.67
2022-08-04T15:36:31.059Z,1.70
2022-08-04T15:39:17.609Z,1.95
2022-08-04T15:41:56.874Z,2.03
2022-08-04T15:44:44.746Z,1.80
2022-08-04T15:47:15.535Z,1.50
2022-08-04T15:49:45.564Z,1.80
2022-08-04T15:52:16.514Z,1.77
2022-08-04T15:54:52.417Z,2.10
2022-08-04T15:57:59.145Z,1.63
2022-08-04T16:00:25.942Z,2.30
2022-08-04T16:02:52.489Z,1.88
2022-08-04T16:05:21.719Z,2.08
2022-08-04T16:07:58.440Z,1.90
2022-08-04T16:10:30.741Z,1.75
2022-08-04T16:12:59.906Z,1.88
2022-08-04T16:15:41.675Z,1.88
2022-08-04T16:18:14.362Z,1.58
2022-08-04T16:20:58.377Z,1.70
2022-08-04T16:23:54.428Z,1.85
2022-08-04T16:26:37.797Z,1.58
2022-08-04T16:29:27.565Z,1.55
2022-08-04T16:32:06.466Z,1.95
2022-08-04T16:34:47.979Z,1.50
2022-08-04T16:37:18.810Z,1.70
2022-08-04T16:39:50.063Z,1.70
2022-08-04T16:42:29.931Z,1.90
2022-08-04T16:45:14.262Z,2.25
2022-08-04T16:47:49.531Z,1.65
2022-08-04T16:50:21.197Z,1.52
2022-08-04T16:52:53.126Z,1.70
2022-08-04T16:55:27.155Z,1.85
2022-08-04T16:57:55.637Z,1.85
2022-08-04T17:00:31.332Z,1.38
2022-08-04T17:02:58.183Z,1.42
2022-08-04T17:05:39.169Z,1.73
2022-08-04T17:08:29.123Z,1.70
2022-08-04T17:10:53.757Z,1.90
2022-08-04T17:14:00.976Z,1.50
2022-08-04T17:16:13.850Z,1.77
2022-08-04T17:18:49.208Z,1.95
2022-08-04T17:21:22.279Z,1.85
2022-08-04T17:24:16.490Z,1.67
2022-08-04T17:26:51.796Z,1.50
2022-08-04T17:29:43.210Z,1.58
2022-08-04T17:32:19.397Z,1.80
2022-08-04T17:35:04.738Z,1.80
2022-08-04T17:37:39.119Z,2.00
2022-08-04T17:40:10.810Z,1.58
2022-08-04T17:42:39.386Z,1.83
2022-08-04T17:45:41.440Z,1.83
2022-08-04T17:47:55.543Z,1.85
2022-08-04T17:50:34.571Z,1.48
2022-08-04T17:53:12.170Z,1.83
2022-08-04T17:55:47.454Z,1.75
2022-08-04T17:58:22.127Z,1.90
2022-08-04T18:03:53.531Z,1.60
2022-08-04T18:06:23.164Z,1.75
2022-08-04T18:08:57.748Z,1.77
2022-08-04T18:11:29.903Z,1.88
2022-08-04T18:14:08.615Z,1.67
2022-08-04T18:16:44.027Z,1.60
2022-08-04T18:19:12.185Z,1.45
2022-08-04T18:21:46.109Z,1.95
2022-08-04T18:24:34.714Z,1.92
2022-08-04T18:27:14.573Z,1.60
2022-08-04T18:29:41.234Z,1.90
2022-08-04T18:32:33.170Z,1.92
2022-08-04T18:35:05.028Z,1.90
2022-08-04T18:38:03.227Z,2.00
2022-08-04T18:40:28.176Z,1.70
2022-08-04T18:45:51.213Z,1.63
2022-08-04T18:48:17.860Z,1.80
2022-08-04T18:51:09.740Z,1.92
2022-08-04T18:56:29.305Z,2.10
2022-08-04T18:58:58.006Z,1.50
2022-08-04T19:01:30.114Z,1.85
2022-08-04T19:04:33.266Z,1.67
2022-08-04T19:07:01.064Z,1.52
2022-08-04T19:09:52.015Z,1.77
2022-08-04T19:12:26.804Z,1.65
2022-08-04T19:15:09.089Z,1.90
2022-08-04T19:17:59.928Z,1.80
2022-08-04T19:20:25.996Z,1.58
2022-08-04T19:24:26.295Z,1.33
2022-08-04T19:25:41.694Z,1.63
2022-08-04T19:28:28.152Z,1.88
2022-08-04T19:30:57.452Z,1.70
2022-08-04T19:36:10.933Z,1.60
2022-08-04T19:38:38.383Z,1.80
2022-08-04T19:41:06.026Z,2.30
2022-08-04T19:43:43.787Z,1.83
2022-08-04T19:46:10.747Z,2.00
2022-08-04T19:48:38.732Z,1.83
2022-08-04T19:51:05.232Z,3.25
2022-08-04T19:53:37.482Z,2.20
2022-08-04T19:56:05.114Z,2.40
2022-08-04T19:58:31.477Z,3.10
2022-08-04T20:00:57.890Z,3.10
2022-08-04T20:04:10.322Z,3.30
2022-08-04T20:06:10.903Z,2.70
2022-08-04T20:08:37.259Z,3.05
2022-08-04T20:11:14.550Z,3.28
2022-08-04T20:13:42.437Z,2.72
2022-08-04T20:16:30.490Z,2.42
2022-08-04T20:18:59.559Z,2.30
2022-08-04T20:21:54.261Z,2.33
2022-08-04T20:24:38.908Z,2.47
2022-08-04T20:27:07.721Z,2.33
2022-08-04T20:32:26.368Z,2.80
2022-08-04T20:34:54.224Z,2.55
2022-08-04T20:37:23.263Z,1.85
2022-08-04T20:39:57.885Z,1.88
2022-08-04T20:44:54.991Z,1.77
2022-08-04T20:47:21.892Z,1.95
2022-08-04T20:49:48.971Z,1.73
2022-08-04T20:52:20.255Z,1.60
2022-08-04T20:54:48.398Z,1.58
2022-08-04T21:00:02.451Z,1.67
2022-08-04T21:02:29.377Z,2.22
2022-08-04T21:04:55.787Z,2.03
2022-08-04T21:07:24.826Z,2.47
2022-08-04T21:09:51.586Z,2.17
2022-08-04T21:12:27.256Z,2.28
2022-08-04T21:14:56.762Z,2.25
2022-08-04T21:17:58.844Z,2.20
2022-08-04T21:20:12.916Z,2.70
2022-08-04T21:22:40.161Z,2.67
2022-08-04T21:25:07.638Z,2.45
2022-08-04T21:27:42.606Z,2.22
2022-08-04T21:30:14.948Z,2.20
2022-08-04T21:32:52.093Z,2.60
2022-08-04T21:35:18.811Z,2.45
2022-08-04T21:37:56.533Z,2.10
2022-08-04T21:40:32.801Z,2.25
2022-08-04T21:43:03.277Z,2.65
2022-08-04T21:45:36.064Z,2.50
2022-08-04T21:48:03.410Z,2.50
2022-08-04T21:50:31.174Z,2.00
2022-08-04T21:52:57.582Z,1.98
2022-08-04T21:55:25.429Z,2.50
2022-08-04T21:58:11.837Z,2.42
2022-08-04T22:00:40.273Z,2.25
2022-08-04T22:03:23.360Z,2.58
2022-08-04T22:05:53.498Z,2.45
2022-08-04T22:08:20.166Z,2.25
2022-08-04T22:10:50.047Z,2.70
2022-08-04T22:13:22.803Z,2.40
2022-08-04T22:16:03.608Z,2.17
2022-08-04T22:18:32.040Z,2.20
2022-08-04T22:21:03.255Z,2.67
2022-08-04T22:23:30.710Z,2.25
2022-08-04T22:26:20.131Z,2.15
2022-08-04T22:28:54.093Z,2.30
2022-08-04T22:31:24.402Z,2.15
2022-08-04T22:33:55.419Z,2.70
2022-08-04T22:36:24.758Z,2.70
2022-08-04T22:39:01.510Z,2.28
2022-08-04T22:41:34.468Z,2.60
2022-08-04T22:44:16.018Z,3.17
2022-08-04T22:46:42.824Z,2.42
2022-08-04T22:49:09.293Z,2.40
2022-08-04T22:51:35.939Z,2.60
2022-08-04T22:54:02.304Z,2.53
2022-08-04T22:56:39.182Z,2.22
2022-08-04T22:59:06.753Z,2.20
2022-08-04T23:02:00.790Z,2.53
2022-08-04T23:04:23.045Z,2.13
2022-08-04T23:06:49.918Z,2.38
2022-08-04T23:09:16.991Z,2.38
2022-08-04T23:11:43.866Z,2.75
2022-08-04T23:14:10.353Z,2.47
2022-08-04T23:16:40.849Z,2.15
2022-08-04T23:19:12.111Z,2.30
2022-08-04T23:21:47.903Z,2.35
2022-08-04T23:24:29.920Z,2.83
2022-08-04T23:26:57.195Z,2.63
2022-08-04T23:29:23.876Z,2.42
2022-08-04T23:31:59.851Z,2.28
2022-08-04T23:34:27.353Z,2.30
2022-08-04T23:36:55.599Z,2.50
2022-08-04T23:39:22.198Z,2.40
2022-08-04T23:41:55.126Z,2.30
2022-08-04T23:44:27.040Z,2.78
2022-08-04T23:47:01.274Z,2.40
2022-08-04T23:49:43.670Z,2.10
2022-08-04T23:52:28.278Z,2.67
2022-08-04T23:55:00.632Z,2.33
2022-08-04T23:57:31.026Z,2.20
